createdAt,value
2019-04-22T00:00:10.686Z,12.50
2019-04-22T00:02:48.963Z,12.85
2019-04-22T00:05:36.924Z,13.40
2019-04-22T00:08:08.993Z,12.90
2019-04-22T00:10:50.367Z,13.18
2019-04-22T00:13:23.755Z,12.73
2019-04-22T00:15:41.821Z,11.33
2019-04-22T00:18:22.385Z,13.20
2019-04-22T00:20:59.803Z,13.68
2019-04-22T00:23:23.471Z,13.15
2019-04-22T00:26:01.651Z,17.60
2019-04-22T00:28:30.801Z,12.53
2019-04-22T00:31:16.911Z,10.85
2019-04-22T00:33:39.369Z,13.83
2019-04-22T00:36:23.317Z,12.60
2019-04-22T00:38:56.232Z,11.45
2019-04-22T00:41:28.633Z,13.88
2019-04-22T00:44:02.928Z,12.55
2019-04-22T00:46:31.471Z,12.47
2019-04-22T00:49:49.055Z,12.60
2019-04-22T00:51:33.592Z,11.65
2019-04-22T00:54:01.022Z,11.83
2019-04-22T00:56:32.818Z,12.10
2019-04-22T00:59:11.973Z,12.78
2019-04-22T01:01:37.196Z,12.30
2019-04-22T01:06:42.757Z,12.93
2019-04-22T01:09:17.356Z,12.90
2019-04-22T01:11:44.597Z,13.58
2019-04-22T01:14:22.066Z,12.30
2019-04-22T01:16:57.886Z,11.18
2019-04-22T01:19:23.580Z,10.28
2019-04-22T01:21:49.803Z,12.47
2019-04-22T01:24:22.252Z,10.78
2019-04-22T01:26:50.826Z,12.05
2019-04-22T01:29:19.642Z,11.85
2019-04-22T01:31:41.831Z,11.80
2019-04-22T01:34:32.211Z,11.88
2019-04-22T01:37:02.585Z,12.20
2019-04-22T01:39:43.715Z,11.97
2019-04-22T01:42:10.473Z,10.08
2019-04-22T01:47:21.296Z,9.50
2019-04-22T01:49:47.600Z,10.63
2019-04-22T01:52:17.024Z,9.83
2019-04-22T01:55:10.600Z,10.75
2019-04-22T01:57:27.027Z,11.00
2019-04-22T01:59:45.713Z,12.73
2019-04-22T02:02:30.399Z,10.48
2019-04-22T02:04:59.793Z,10.63
2019-04-22T02:07:29.540Z,10.48
2019-04-22T02:10:02.331Z,9.90
2019-04-22T02:12:33.382Z,12.43
2019-04-22T02:15:09.976Z,11.25
2019-04-22T02:17:37.188Z,12.90
2019-04-22T02:20:13.510Z,12.10
2019-04-22T02:28:40.122Z,10.75
2019-04-22T02:31:23.211Z,11.60
2019-04-22T02:41:26.389Z,13.25
2019-04-22T02:51:21.891Z,11.18
2019-04-22T02:59:04.245Z,11.45
2019-04-22T03:04:09.669Z,14.40
2019-04-22T03:09:03.818Z,12.75
2019-04-22T03:11:34.213Z,16.27
2019-04-22T03:19:22.798Z,13.00
2019-04-22T03:21:44.199Z,10.90
2019-04-22T03:24:28.950Z,11.10
2019-04-22T03:29:24.113Z,12.10
2019-04-22T03:42:10.011Z,10.23
2019-04-22T03:44:50.072Z,11.75
2019-04-22T03:47:24.066Z,10.72
2019-04-22T03:54:52.055Z,9.40
2019-04-22T03:59:48.194Z,9.98
2019-04-22T04:02:29.313Z,14.13
2019-04-22T04:05:05.329Z,13.62
2019-04-22T04:07:32.356Z,16.60
2019-04-22T04:10:00.387Z,10.90
2019-04-22T04:15:12.349Z,12.73
2019-04-22T04:22:56.324Z,10.95
2019-04-22T04:25:24.197Z,11.18
2019-04-22T04:27:54.121Z,12.33
2019-04-22T04:35:23.720Z,9.78
2019-04-22T04:37:55.832Z,12.73
2019-04-22T04:43:00.889Z,12.75
2019-04-22T04:50:34.339Z,10.65
2019-04-22T04:55:28.188Z,12.78
2019-04-22T05:08:13.832Z,12.05
2019-04-22T05:10:53.729Z,11.00
2019-04-22T05:13:33.550Z,11.95
2019-04-22T05:18:26.543Z,12.85
2019-04-22T05:21:11.248Z,11.97
2019-04-22T05:23:25.090Z,11.90
2019-04-22T05:25:55.050Z,11.65
2019-04-22T05:30:43.725Z,12.20
2019-04-22T05:33:19.050Z,13.93
2019-04-22T05:35:46.389Z,12.55
2019-04-22T05:38:31.345Z,11.30
2019-04-22T05:40:54.587Z,16.00
2019-04-22T05:43:27.261Z,13.85
2019-04-22T05:45:57.871Z,11.97
2019-04-22T05:48:33.097Z,13.90
2019-04-22T05:51:03.740Z,11.43
2019-04-22T05:53:34.376Z,12.43
2019-04-22T05:56:09.980Z,12.40
2019-04-22T05:58:38.112Z,11.40
2019-04-22T06:03:46.067Z,12.18
2019-04-22T06:06:16.733Z,11.83
2019-04-22T06:08:48.720Z,13.28
2019-04-22T06:11:24.166Z,10.40
2019-04-22T06:13:50.157Z,11.95
2019-04-22T06:16:26.314Z,13.83
2019-04-22T06:19:03.185Z,11.05
2019-04-22T06:24:14.135Z,11.18
2019-04-22T06:26:47.187Z,9.00
2019-04-22T06:29:19.432Z,10.72
2019-04-22T06:32:03.648Z,11.12
2019-04-22T06:34:17.737Z,9.50
2019-04-22T06:39:27.822Z,8.90
2019-04-22T06:41:51.676Z,8.75
2019-04-22T06:46:52.061Z,9.90
2019-04-22T06:49:22.765Z,10.18
2019-04-22T06:52:00.160Z,9.78
2019-04-22T06:54:28.310Z,10.65
2019-04-22T06:57:02.451Z,8.30
2019-04-22T06:59:34.451Z,9.90
2019-04-22T07:02:04.516Z,10.38
2019-04-22T07:04:38.256Z,11.57
2019-04-22T07:07:08.338Z,11.60
2019-04-22T07:09:41.447Z,8.00
2019-04-22T07:12:15.560Z,10.93
2019-04-22T07:14:42.121Z,10.10
2019-04-22T07:17:30.925Z,10.08
2019-04-22T07:19:45.324Z,10.75
2019-04-22T07:22:18.557Z,9.88
2019-04-22T07:29:56.131Z,10.53
2019-04-22T07:32:40.091Z,9.40
2019-04-22T07:37:37.412Z,8.15
2019-04-22T07:39:56.971Z,8.78
2019-04-22T07:42:32.866Z,7.85
2019-04-22T07:45:05.035Z,11.08
2019-04-22T07:47:52.152Z,8.48
2019-04-22T07:50:12.826Z,8.55
2019-04-22T07:52:41.445Z,8.70
2019-04-22T07:55:07.096Z,7.33
2019-04-22T07:57:44.501Z,10.58
2019-04-22T08:00:16.000Z,7.92
2019-04-22T08:02:51.722Z,9.15
2019-04-22T08:05:22.310Z,8.13
2019-04-22T08:07:48.947Z,10.18
2019-04-22T08:10:30.190Z,7.08
2019-04-22T08:15:27.388Z,8.45
2019-04-22T08:20:35.022Z,11.97
2019-04-22T08:23:09.218Z,7.55
2019-04-22T08:25:38.797Z,8.48
2019-04-22T08:28:13.400Z,9.18
2019-04-22T08:30:50.693Z,8.28
2019-04-22T08:33:16.188Z,8.88
2019-04-22T08:36:00.876Z,7.42
2019-04-22T08:38:14.734Z,7.62
2019-04-22T08:41:39.209Z,10.13
2019-04-22T08:44:41.574Z,6.70
2019-04-22T08:46:34.764Z,7.62
2019-04-22T08:49:10.317Z,9.65
2019-04-22T08:51:49.097Z,8.03
2019-04-22T08:54:11.775Z,7.33
2019-04-22T08:56:43.980Z,9.23
2019-04-22T09:01:37.678Z,7.22
2019-04-22T09:04:11.973Z,10.98
2019-04-22T09:07:02.436Z,10.90
2019-04-22T09:09:21.225Z,8.70
2019-04-22T09:11:56.405Z,7.45
2019-04-22T09:14:26.656Z,7.15
2019-04-22T09:16:48.609Z,7.65
2019-04-22T09:19:27.064Z,6.75
2019-04-22T09:22:00.404Z,6.87
2019-04-22T09:24:29.210Z,6.62
2019-04-22T09:27:08.126Z,8.18
2019-04-22T09:29:34.018Z,8.53
2019-04-22T09:32:05.304Z,7.28
2019-04-22T09:37:17.974Z,7.22
2019-04-22T09:39:44.312Z,9.83
2019-04-22T09:42:09.105Z,8.83
2019-04-22T09:47:11.685Z,6.67
2019-04-22T09:50:01.519Z,6.92
2019-04-22T09:52:15.031Z,8.05
2019-04-22T09:57:21.122Z,7.40
2019-04-22T09:59:57.778Z,7.97
2019-04-22T10:05:00.166Z,7.50
2019-04-22T10:07:50.287Z,9.08
2019-04-22T10:10:11.213Z,8.18
2019-04-22T10:12:37.043Z,9.50
2019-04-22T10:15:07.900Z,9.43
2019-04-22T10:17:39.275Z,8.38
2019-04-22T10:20:10.214Z,9.43
2019-04-22T10:22:46.036Z,9.20
2019-04-22T10:25:21.449Z,8.50
2019-04-22T10:27:52.360Z,13.95
2019-04-22T10:30:31.559Z,11.20
2019-04-22T10:32:47.590Z,11.20
2019-04-22T10:35:15.452Z,11.68
2019-04-22T10:37:42.821Z,7.80
2019-04-22T10:40:34.638Z,9.73
2019-04-22T10:43:05.420Z,17.98
2019-04-22T10:45:36.212Z,13.25
2019-04-22T10:48:10.443Z,7.62
2019-04-22T10:50:43.574Z,9.78
2019-04-22T10:53:15.409Z,9.28
2019-04-22T10:55:47.709Z,9.03
2019-04-22T10:58:20.837Z,42.03
2019-04-22T11:00:52.271Z,18.82
2019-04-22T11:03:24.524Z,13.95
2019-04-22T11:05:54.833Z,11.03
2019-04-22T11:08:34.966Z,7.72
2019-04-22T11:11:12.388Z,11.85
2019-04-22T11:13:28.446Z,7.90
2019-04-22T11:15:58.823Z,9.00
2019-04-22T11:18:31.546Z,7.58
2019-04-22T11:21:02.023Z,6.85
2019-04-22T11:23:32.454Z,7.58
2019-04-22T11:26:03.900Z,7.22
2019-04-22T11:28:35.738Z,7.33
2019-04-22T11:31:06.255Z,7.90
2019-04-22T11:33:36.507Z,6.62
2019-04-22T11:36:08.016Z,7.25
2019-04-22T11:38:48.628Z,9.58
2019-04-22T11:41:09.936Z,5.83
2019-04-22T11:43:41.199Z,7.83
2019-04-22T11:46:11.549Z,9.03
2019-04-22T11:48:42.405Z,9.10
2019-04-22T11:51:13.820Z,6.62
2019-04-22T11:53:45.072Z,7.95
2019-04-22T11:56:16.821Z,6.20
2019-04-22T11:58:47.107Z,7.90
2019-04-22T12:01:17.118Z,13.18
2019-04-22T12:03:47.191Z,10.93
2019-04-22T12:06:18.010Z,9.85
2019-04-22T12:08:49.914Z,6.20
2019-04-22T12:11:20.713Z,7.05
2019-04-22T12:13:51.796Z,5.85
2019-04-22T12:16:23.212Z,7.78
2019-04-22T12:18:53.716Z,5.60
2019-04-22T12:21:24.155Z,7.45
2019-04-22T12:23:54.987Z,5.70
2019-04-22T12:26:26.917Z,16.62
2019-04-22T12:28:57.299Z,6.40
2019-04-22T12:31:27.562Z,5.72
2019-04-22T12:33:57.594Z,5.40
2019-04-22T12:36:28.670Z,6.03
2019-04-22T12:38:59.722Z,8.63
2019-04-22T12:41:31.024Z,5.35
2019-04-22T12:44:01.351Z,6.28
2019-04-22T12:46:32.330Z,5.58
2019-04-22T12:49:02.722Z,6.12
2019-04-22T12:51:33.285Z,6.28
2019-04-22T12:54:03.668Z,5.87
2019-04-22T12:56:33.806Z,6.67
2019-04-22T12:59:05.579Z,8.03
2019-04-22T13:01:37.304Z,7.05
2019-04-22T13:04:10.191Z,6.12
2019-04-22T13:06:39.895Z,6.00
2019-04-22T13:09:10.532Z,8.58
2019-04-22T13:11:42.251Z,6.17
2019-04-22T13:14:12.706Z,7.60
2019-04-22T13:16:43.032Z,6.95
2019-04-22T13:19:17.049Z,5.83
2019-04-22T13:21:45.130Z,6.45
2019-04-22T13:24:18.155Z,5.12
2019-04-22T13:26:48.526Z,4.83
2019-04-22T13:29:19.265Z,5.12
2019-04-22T13:31:50.593Z,4.87
2019-04-22T13:34:29.187Z,6.90
2019-04-22T13:36:52.960Z,5.33
2019-04-22T13:39:25.044Z,7.40
2019-04-22T13:42:00.460Z,5.90
2019-04-22T13:44:28.435Z,4.90
2019-04-22T13:47:14.758Z,6.15
2019-04-22T13:50:13.617Z,6.90
2019-04-22T13:52:40.329Z,5.70
2019-04-22T13:55:15.932Z,6.20
2019-04-22T13:57:24.947Z,6.65
2019-04-22T13:59:44.078Z,4.45
2019-04-22T14:02:38.529Z,4.47
2019-04-22T14:05:10.595Z,4.80
2019-04-22T14:07:41.094Z,10.38
2019-04-22T14:10:12.144Z,5.58
2019-04-22T14:12:42.684Z,4.80
2019-04-22T14:15:13.942Z,5.80
2019-04-22T14:17:45.396Z,6.05
2019-04-22T14:20:16.433Z,4.90
2019-04-22T14:22:46.440Z,5.42
2019-04-22T14:25:16.760Z,6.37
2019-04-22T14:27:54.492Z,4.72
2019-04-22T14:30:18.922Z,7.47
2019-04-22T14:32:48.978Z,4.97
2019-04-22T14:35:20.890Z,5.25
2019-04-22T14:37:52.276Z,4.60
2019-04-22T14:40:24.720Z,5.55
2019-04-22T14:43:13.480Z,4.50
2019-04-22T14:46:04.648Z,6.70
2019-04-22T14:48:27.851Z,6.17
2019-04-22T14:50:52.076Z,5.53
2019-04-22T14:53:21.718Z,6.40
2019-04-22T14:55:36.697Z,5.83
2019-04-22T14:58:06.829Z,5.28
2019-04-22T15:00:38.149Z,6.75
2019-04-22T15:03:09.937Z,6.08
2019-04-22T15:05:41.976Z,4.97
2019-04-22T15:08:13.147Z,4.22
2019-04-22T15:10:44.139Z,4.85
2019-04-22T15:13:15.583Z,4.50
2019-04-22T15:16:11.867Z,6.33
2019-04-22T15:19:05.492Z,5.75
2019-04-22T15:21:36.722Z,5.40
2019-04-22T15:24:27.345Z,4.83
2019-04-22T15:26:58.645Z,7.37
2019-04-22T15:29:31.395Z,7.45
2019-04-22T15:32:03.049Z,5.85
2019-04-22T15:34:34.609Z,6.30
2019-04-22T15:37:06.333Z,5.72
2019-04-22T15:39:36.660Z,6.47
2019-04-22T15:42:17.376Z,4.97
2019-04-22T15:44:39.985Z,5.00
2019-04-22T15:47:11.173Z,4.80
2019-04-22T15:49:42.240Z,7.53
2019-04-22T15:52:12.673Z,6.45
2019-04-22T15:54:43.781Z,4.60
2019-04-22T15:57:14.947Z,6.12
2019-04-22T16:00:05.275Z,6.50
2019-04-22T16:02:19.338Z,4.58
2019-04-22T16:04:50.626Z,6.33
2019-04-22T16:07:23.917Z,5.90
2019-04-22T16:09:53.866Z,5.05
2019-04-22T16:12:30.902Z,6.60
2019-04-22T16:14:57.449Z,5.72
2019-04-22T16:17:28.634Z,5.95
2019-04-22T16:19:59.405Z,7.03
2019-04-22T16:22:32.465Z,5.15
2019-04-22T16:25:25.106Z,5.50
2019-04-22T16:27:56.461Z,6.40
2019-04-22T16:30:27.781Z,5.17
2019-04-22T16:33:01.524Z,5.70
2019-04-22T16:35:32.761Z,4.30
2019-04-22T16:38:04.338Z,5.37
2019-04-22T16:40:34.759Z,4.87
2019-04-22T16:43:07.756Z,4.95
2019-04-22T16:45:37.796Z,6.20
2019-04-22T16:48:09.290Z,7.12
2019-04-22T16:50:42.810Z,4.47
2019-04-22T16:53:13.812Z,4.80
2019-04-22T16:55:44.529Z,4.53
2019-04-22T16:58:15.047Z,4.50
2019-04-22T17:00:46.940Z,4.62
2019-04-22T17:03:42.826Z,5.50
2019-04-22T17:06:19.417Z,5.22
2019-04-22T17:08:50.702Z,5.08
2019-04-22T17:11:22.147Z,4.45
2019-04-22T17:13:53.028Z,4.90
2019-04-22T17:16:24.366Z,4.65
2019-04-22T17:18:56.322Z,4.90
2019-04-22T17:21:27.762Z,5.95
2019-04-22T17:23:59.287Z,4.67
2019-04-22T17:26:30.437Z,5.58
2019-04-22T17:29:04.023Z,6.35
2019-04-22T17:31:32.276Z,4.47
2019-04-22T17:34:02.610Z,5.10
2019-04-22T17:36:33.965Z,5.90
2019-04-22T17:39:18.287Z,6.97
2019-04-22T17:41:59.419Z,6.92
2019-04-22T17:44:40.048Z,5.33
2019-04-22T17:47:30.323Z,8.33
2019-04-22T17:50:11.538Z,6.65
2019-04-22T17:52:36.519Z,6.65
2019-04-22T17:55:11.437Z,4.70
2019-04-22T17:57:39.208Z,5.80
2019-04-22T18:00:17.277Z,6.00
2019-04-22T18:02:45.838Z,7.62
2019-04-22T18:05:03.759Z,6.33
2019-04-22T18:07:52.595Z,4.33
2019-04-22T18:10:33.091Z,5.25
2019-04-22T18:13:01.934Z,4.60
2019-04-22T18:15:35.756Z,7.20
2019-04-22T18:18:09.125Z,6.15
2019-04-22T18:20:28.162Z,6.42
2019-04-22T18:22:54.632Z,5.28
2019-04-22T18:25:33.872Z,8.48
2019-04-22T18:28:15.185Z,8.88
2019-04-22T18:30:33.364Z,8.15
2019-04-22T18:33:13.293Z,9.35
2019-04-22T18:35:42.057Z,8.05
2019-04-22T18:38:28.172Z,7.83
2019-04-22T18:40:44.801Z,5.80
2019-04-22T18:43:25.978Z,7.80
2019-04-22T18:45:54.942Z,6.60
2019-04-22T18:48:12.209Z,8.13
2019-04-22T18:51:06.564Z,6.00
2019-04-22T18:53:52.031Z,7.33
2019-04-22T18:56:21.970Z,7.47
2019-04-22T18:58:45.844Z,6.87
2019-04-22T19:01:08.083Z,9.68
2019-04-22T19:03:51.089Z,6.83
2019-04-22T19:06:46.346Z,8.75
2019-04-22T19:09:05.318Z,8.65
2019-04-22T19:11:38.640Z,8.88
2019-04-22T19:14:06.021Z,8.55
2019-04-22T19:16:39.740Z,8.15
2019-04-22T19:19:29.786Z,6.33
2019-04-22T19:21:43.390Z,10.38
2019-04-22T19:24:09.046Z,8.23
2019-04-22T19:29:18.634Z,7.67
2019-04-22T19:31:52.351Z,9.05
2019-04-22T19:34:20.461Z,6.25
2019-04-22T19:36:57.267Z,8.13
2019-04-22T19:39:22.764Z,8.40
2019-04-22T19:42:00.886Z,7.03
2019-04-22T19:44:33.275Z,8.30
2019-04-22T19:47:19.582Z,7.08
2019-04-22T19:49:40.902Z,6.67
2019-04-22T19:52:24.549Z,9.33
2019-04-22T19:54:40.649Z,7.78
2019-04-22T19:57:05.839Z,8.25
2019-04-22T19:59:45.459Z,7.72
2019-04-22T20:02:33.168Z,8.55
2019-04-22T20:05:21.088Z,9.38
2019-04-22T20:07:41.851Z,9.10
2019-04-22T20:10:20.592Z,11.43
2019-04-22T20:12:42.880Z,7.00
2019-04-22T20:15:21.411Z,8.45
2019-04-22T20:18:19.166Z,7.05
2019-04-22T20:20:27.334Z,7.30
2019-04-22T20:22:52.354Z,7.47
2019-04-22T20:25:21.209Z,8.65
2019-04-22T20:28:01.258Z,6.00
2019-04-22T20:30:34.786Z,7.67
2019-04-22T20:32:59.498Z,5.70
2019-04-22T20:35:41.859Z,7.20
2019-04-22T20:38:08.755Z,5.30
2019-04-22T20:40:39.798Z,12.18
2019-04-22T20:43:17.910Z,5.97
2019-04-22T20:45:46.441Z,7.78
2019-04-22T20:48:06.019Z,6.05
2019-04-22T20:50:48.564Z,8.40
2019-04-22T20:53:26.775Z,7.72
2019-04-22T20:55:52.431Z,5.45
2019-04-22T20:58:30.177Z,7.50
2019-04-22T21:00:46.296Z,4.65
2019-04-22T21:03:20.906Z,10.08
2019-04-22T21:05:52.826Z,5.25
2019-04-22T21:08:38.946Z,8.35
2019-04-22T21:10:56.106Z,5.55
2019-04-22T21:13:27.833Z,6.60
2019-04-22T21:16:09.288Z,6.55
2019-04-22T21:18:36.139Z,7.47
2019-04-22T21:21:16.584Z,5.97
2019-04-22T21:23:41.279Z,8.73
2019-04-22T21:26:13.610Z,5.80
2019-04-22T21:28:49.036Z,5.12
2019-04-22T21:31:23.498Z,6.17
2019-04-22T21:33:51.598Z,10.40
2019-04-22T21:36:33.298Z,4.60
2019-04-22T21:38:54.139Z,7.15
2019-04-22T21:41:24.866Z,5.65
2019-04-22T21:43:58.052Z,5.22
2019-04-22T21:46:30.948Z,5.40
2019-04-22T21:49:09.414Z,10.95
2019-04-22T21:51:39.710Z,4.47
2019-04-22T21:54:11.766Z,6.40
2019-04-22T21:57:19.340Z,4.55
2019-04-22T21:59:40.227Z,6.17
2019-04-22T22:02:16.222Z,4.90
2019-04-22T22:04:44.480Z,11.20
2019-04-22T22:07:07.541Z,6.67
2019-04-22T22:09:47.136Z,5.80
2019-04-22T22:12:17.842Z,4.15
2019-04-22T22:14:55.835Z,6.62
2019-04-22T22:17:22.349Z,4.53
2019-04-22T22:19:52.913Z,4.53
2019-04-22T22:22:50.134Z,4.97
2019-04-22T22:25:04.584Z,7.90
2019-04-22T22:27:30.089Z,5.37
2019-04-22T22:30:26.752Z,5.15
2019-04-22T22:32:36.808Z,6.80
2019-04-22T22:35:12.108Z,6.67
2019-04-22T22:37:30.864Z,6.47
2019-04-22T22:40:00.873Z,8.28
2019-04-22T22:42:31.293Z,7.10
2019-04-22T22:45:07.754Z,7.15
2019-04-22T22:47:45.771Z,7.42
2019-04-22T22:50:23.312Z,6.92
2019-04-22T22:53:00.854Z,7.20
2019-04-22T22:55:28.916Z,7.37
2019-04-22T22:58:01.359Z,5.45
2019-04-22T23:00:28.722Z,4.67
2019-04-22T23:03:16.834Z,5.03
2019-04-22T23:05:37.581Z,6.80
2019-04-22T23:08:17.464Z,4.67
2019-04-22T23:10:52.915Z,6.17
2019-04-22T23:13:18.619Z,7.40
2019-04-22T23:15:38.464Z,6.25
2019-04-22T23:17:54.164Z,5.37
2019-04-22T23:20:31.118Z,8.00
2019-04-22T23:23:20.169Z,11.65
2019-04-22T23:25:56.733Z,7.75
2019-04-22T23:28:30.034Z,10.30
2019-04-22T23:31:25.052Z,7.33
2019-04-22T23:34:10.604Z,6.80
2019-04-22T23:36:56.352Z,6.72
2019-04-22T23:39:41.521Z,4.90
2019-04-22T23:42:14.179Z,5.28
2019-04-22T23:44:39.836Z,6.85
2019-04-22T23:47:08.705Z,5.17
2019-04-22T23:49:42.041Z,7.62
2019-04-22T23:52:19.154Z,11.38
2019-04-22T23:54:57.127Z,6.65
2019-04-22T23:57:24.170Z,4.40
2019-04-22T23:59:57.189Z,4.67
